sensor_id;sensor_type;location;lat;lon;timestamp;temperature;humidity
21171;DHT22;10743;52.160;20.910;2024-03-02T00:00:24;24.30;36.90
21171;DHT22;10743;52.160;20.910;2024-03-02T00:02:52;24.20;36.90
21171;DHT22;10743;52.160;20.910;2024-03-02T00:05:20;24.20;37.00
21171;DHT22;10743;52.160;20.910;2024-03-02T00:07:56;24.20;37.00
21171;DHT22;10743;52.160;20.910;2024-03-02T00:10:37;24.20;37.00
21171;DHT22;10743;52.160;20.910;2024-03-02T00:13:08;24.20;37.00
21171;DHT22;10743;52.160;20.910;2024-03-02T00:15:52;24.20;37.00
21171;DHT22;10743;52.160;20.910;2024-03-02T00:18:31;24.20;37.00
21171;DHT22;10743;52.160;20.910;2024-03-02T00:21:00;24.10;37.00
21171;DHT22;10743;52.160;20.910;2024-03-02T00:23:30;24.20;37.00
21171;DHT22;10743;52.160;20.910;2024-03-02T00:25:58;24.20;36.90
21171;DHT22;10743;52.160;20.910;2024-03-02T00:28:29;24.10;37.00
21171;DHT22;10743;52.160;20.910;2024-03-02T00:31:04;24.20;37.70
21171;DHT22;10743;52.160;20.910;2024-03-02T00:33:48;24.20;37.00
21171;DHT22;10743;52.160;20.910;2024-03-02T00:36:24;24.20;36.90
21171;DHT22;10743;52.160;20.910;2024-03-02T00:38:53;24.20;36.90
21171;DHT22;10743;52.160;20.910;2024-03-02T00:44:05;24.20;36.90
21171;DHT22;10743;52.160;20.910;2024-03-02T00:46:37;24.20;36.90
21171;DHT22;10743;52.160;20.910;2024-03-02T00:49:25;24.20;36.90
21171;DHT22;10743;52.160;20.910;2024-03-02T00:51:54;24.20;36.90
21171;DHT22;10743;52.160;20.910;2024-03-02T00:54:24;24.20;36.80
21171;DHT22;10743;52.160;20.910;2024-03-02T00:56:53;24.30;36.80
21171;DHT22;10743;52.160;20.910;2024-03-02T00:59:23;24.20;36.90
21171;DHT22;10743;52.160;20.910;2024-03-02T01:01:50;24.10;36.90
21171;DHT22;10743;52.160;20.910;2024-03-02T01:04:18;24.10;36.90
21171;DHT22;10743;52.160;20.910;2024-03-02T01:06:45;24.10;37.30
21171;DHT22;10743;52.160;20.910;2024-03-02T01:09:12;24.10;36.80
21171;DHT22;10743;52.160;20.910;2024-03-02T01:11:40;24.10;36.90
21171;DHT22;10743;52.160;20.910;2024-03-02T01:14:07;24.00;37.00
21171;DHT22;10743;52.160;20.910;2024-03-02T01:16:34;23.90;37.10
21171;DHT22;10743;52.160;20.910;2024-03-02T01:19:01;23.90;37.20
21171;DHT22;10743;52.160;20.910;2024-03-02T01:21:28;24.00;37.10
21171;DHT22;10743;52.160;20.910;2024-03-02T01:23:55;24.00;37.10
21171;DHT22;10743;52.160;20.910;2024-03-02T01:26:22;24.00;37.10
21171;DHT22;10743;52.160;20.910;2024-03-02T01:28:49;24.00;36.90
21171;DHT22;10743;52.160;20.910;2024-03-02T01:31:16;24.00;37.00
21171;DHT22;10743;52.160;20.910;2024-03-02T01:33:43;24.00;37.00
21171;DHT22;10743;52.160;20.910;2024-03-02T01:36:11;23.90;37.00
21171;DHT22;10743;52.160;20.910;2024-03-02T01:38:38;23.90;37.10
21171;DHT22;10743;52.160;20.910;2024-03-02T01:41:05;23.80;37.20
21171;DHT22;10743;52.160;20.910;2024-03-02T01:43:32;23.80;37.30
21171;DHT22;10743;52.160;20.910;2024-03-02T01:45:59;23.80;37.30
21171;DHT22;10743;52.160;20.910;2024-03-02T01:48:26;23.80;37.20
21171;DHT22;10743;52.160;20.910;2024-03-02T01:50:53;23.80;37.30
21171;DHT22;10743;52.160;20.910;2024-03-02T01:53:20;23.80;37.30
21171;DHT22;10743;52.160;20.910;2024-03-02T01:55:47;23.70;37.30
21171;DHT22;10743;52.160;20.910;2024-03-02T01:58:14;23.80;38.00
21171;DHT22;10743;52.160;20.910;2024-03-02T02:00:41;23.80;37.30
21171;DHT22;10743;52.160;20.910;2024-03-02T02:03:08;23.80;37.30
21171;DHT22;10743;52.160;20.910;2024-03-02T02:05:35;23.70;37.30
21171;DHT22;10743;52.160;20.910;2024-03-02T02:08:04;23.70;37.30
21171;DHT22;10743;52.160;20.910;2024-03-02T02:10:32;23.70;37.40
21171;DHT22;10743;52.160;20.910;2024-03-02T02:12:59;23.70;37.30
21171;DHT22;10743;52.160;20.910;2024-03-02T02:15:30;23.80;37.40
21171;DHT22;10743;52.160;20.910;2024-03-02T02:17:58;23.80;37.30
21171;DHT22;10743;52.160;20.910;2024-03-02T02:20:26;23.80;37.30
21171;DHT22;10743;52.160;20.910;2024-03-02T02:22:57;23.70;37.30
21171;DHT22;10743;52.160;20.910;2024-03-02T02:25:25;23.70;37.40
21171;DHT22;10743;52.160;20.910;2024-03-02T02:27:53;23.70;37.40
21171;DHT22;10743;52.160;20.910;2024-03-02T02:30:30;23.70;37.30
21171;DHT22;10743;52.160;20.910;2024-03-02T02:32:59;23.70;37.30
21171;DHT22;10743;52.160;20.910;2024-03-02T02:35:26;23.70;37.50
21171;DHT22;10743;52.160;20.910;2024-03-02T02:37:55;23.70;37.30
21171;DHT22;10743;52.160;20.910;2024-03-02T02:40:23;23.60;37.20
21171;DHT22;10743;52.160;20.910;2024-03-02T02:42:50;23.60;37.30
21171;DHT22;10743;52.160;20.910;2024-03-02T02:45:20;23.70;37.30
21171;DHT22;10743;52.160;20.910;2024-03-02T02:47:47;23.70;37.40
21171;DHT22;10743;52.160;20.910;2024-03-02T02:50:14;23.60;37.50
21171;DHT22;10743;52.160;20.910;2024-03-02T02:52:42;23.60;37.50
21171;DHT22;10743;52.160;20.910;2024-03-02T02:55:11;23.50;37.50
21171;DHT22;10743;52.160;20.910;2024-03-02T02:57:40;23.50;37.60
21171;DHT22;10743;52.160;20.910;2024-03-02T03:00:12;23.50;37.50
21171;DHT22;10743;52.160;20.910;2024-03-02T03:02:46;23.50;37.50
21171;DHT22;10743;52.160;20.910;2024-03-02T03:05:17;23.50;37.60
21171;DHT22;10743;52.160;20.910;2024-03-02T03:07:44;23.50;37.60
21171;DHT22;10743;52.160;20.910;2024-03-02T03:10:12;23.40;37.60
21171;DHT22;10743;52.160;20.910;2024-03-02T03:12:40;23.40;37.70
21171;DHT22;10743;52.160;20.910;2024-03-02T03:15:11;23.40;37.70
21171;DHT22;10743;52.160;20.910;2024-03-02T03:17:39;23.40;37.70
21171;DHT22;10743;52.160;20.910;2024-03-02T03:20:07;23.40;37.70
21171;DHT22;10743;52.160;20.910;2024-03-02T03:22:38;23.40;37.70
21171;DHT22;10743;52.160;20.910;2024-03-02T03:25:05;23.30;37.70
21171;DHT22;10743;52.160;20.910;2024-03-02T03:27:35;23.30;38.40
21171;DHT22;10743;52.160;20.910;2024-03-02T03:30:03;23.30;37.70
21171;DHT22;10743;52.160;20.910;2024-03-02T03:32:30;23.30;37.70
21171;DHT22;10743;52.160;20.910;2024-03-02T03:34:57;23.20;37.70
21171;DHT22;10743;52.160;20.910;2024-03-02T03:37:24;23.20;37.80
21171;DHT22;10743;52.160;20.910;2024-03-02T03:39:53;23.20;37.80
21171;DHT22;10743;52.160;20.910;2024-03-02T03:42:20;23.20;37.80
21171;DHT22;10743;52.160;20.910;2024-03-02T03:44:47;23.20;37.90
21171;DHT22;10743;52.160;20.910;2024-03-02T03:47:15;23.20;37.90
21171;DHT22;10743;52.160;20.910;2024-03-02T03:49:42;23.20;37.90
21171;DHT22;10743;52.160;20.910;2024-03-02T03:52:09;23.30;37.90
21171;DHT22;10743;52.160;20.910;2024-03-02T03:54:36;23.20;37.80
21171;DHT22;10743;52.160;20.910;2024-03-02T03:57:05;23.20;37.80
21171;DHT22;10743;52.160;20.910;2024-03-02T03:59:32;23.30;37.80
21171;DHT22;10743;52.160;20.910;2024-03-02T04:01:59;23.20;37.80
21171;DHT22;10743;52.160;20.910;2024-03-02T04:04:26;23.20;37.80
21171;DHT22;10743;52.160;20.910;2024-03-02T04:06:54;23.20;37.80
21171;DHT22;10743;52.160;20.910;2024-03-02T04:09:21;23.20;37.90
21171;DHT22;10743;52.160;20.910;2024-03-02T04:11:48;23.20;38.00
21171;DHT22;10743;52.160;20.910;2024-03-02T04:14:15;23.10;37.90
21171;DHT22;10743;52.160;20.910;2024-03-02T04:16:42;23.20;37.80
21171;DHT22;10743;52.160;20.910;2024-03-02T04:19:09;23.10;37.90
21171;DHT22;10743;52.160;20.910;2024-03-02T04:21:36;23.10;38.00
21171;DHT22;10743;52.160;20.910;2024-03-02T04:24:04;23.10;38.00
21171;DHT22;10743;52.160;20.910;2024-03-02T04:26:31;23.10;38.00
21171;DHT22;10743;52.160;20.910;2024-03-02T04:28:58;23.10;37.90
21171;DHT22;10743;52.160;20.910;2024-03-02T04:31:25;23.00;38.00
21171;DHT22;10743;52.160;20.910;2024-03-02T04:33:52;23.00;38.10
21171;DHT22;10743;52.160;20.910;2024-03-02T04:36:20;23.00;38.10
21171;DHT22;10743;52.160;20.910;2024-03-02T04:38:48;23.00;38.10
21171;DHT22;10743;52.160;20.910;2024-03-02T04:41:15;22.90;38.20
21171;DHT22;10743;52.160;20.910;2024-03-02T04:43:42;22.90;38.30
21171;DHT22;10743;52.160;20.910;2024-03-02T04:46:09;22.90;38.30
21171;DHT22;10743;52.160;20.910;2024-03-02T04:48:37;22.90;38.30
21171;DHT22;10743;52.160;20.910;2024-03-02T04:51:05;22.80;38.30
21171;DHT22;10743;52.160;20.910;2024-03-02T04:53:32;22.80;38.30
21171;DHT22;10743;52.160;20.910;2024-03-02T04:55:59;22.80;38.50
21171;DHT22;10743;52.160;20.910;2024-03-02T04:58:44;22.80;38.40
21171;DHT22;10743;52.160;20.910;2024-03-02T05:01:11;22.80;38.40
21171;DHT22;10743;52.160;20.910;2024-03-02T05:03:38;22.70;38.40
21171;DHT22;10743;52.160;20.910;2024-03-02T05:06:06;22.70;38.50
21171;DHT22;10743;52.160;20.910;2024-03-02T05:08:33;22.80;38.50
21171;DHT22;10743;52.160;20.910;2024-03-02T05:10:59;22.70;38.40
21171;DHT22;10743;52.160;20.910;2024-03-02T05:13:46;22.70;38.50
21171;DHT22;10743;52.160;20.910;2024-03-02T05:16:14;22.70;38.50
21171;DHT22;10743;52.160;20.910;2024-03-02T05:18:41;22.70;38.40
21171;DHT22;10743;52.160;20.910;2024-03-02T05:21:08;22.70;38.50
21171;DHT22;10743;52.160;20.910;2024-03-02T05:23:35;22.70;38.80
21171;DHT22;10743;52.160;20.910;2024-03-02T05:26:02;22.70;38.60
21171;DHT22;10743;52.160;20.910;2024-03-02T05:28:29;22.70;38.50
21171;DHT22;10743;52.160;20.910;2024-03-02T05:30:56;22.70;38.60
21171;DHT22;10743;52.160;20.910;2024-03-02T05:33:23;22.70;38.60
21171;DHT22;10743;52.160;20.910;2024-03-02T05:35:50;22.70;38.60
21171;DHT22;10743;52.160;20.910;2024-03-02T05:38:18;22.70;38.60
21171;DHT22;10743;52.160;20.910;2024-03-02T05:40:45;22.70;38.60
21171;DHT22;10743;52.160;20.910;2024-03-02T05:43:12;22.60;38.70
21171;DHT22;10743;52.160;20.910;2024-03-02T05:45:39;22.60;38.70
21171;DHT22;10743;52.160;20.910;2024-03-02T05:48:07;22.70;38.60
21171;DHT22;10743;52.160;20.910;2024-03-02T05:50:35;22.70;38.60
21171;DHT22;10743;52.160;20.910;2024-03-02T05:53:02;22.70;38.70
21171;DHT22;10743;52.160;20.910;2024-03-02T05:55:29;22.70;38.70
21171;DHT22;10743;52.160;20.910;2024-03-02T05:57:56;22.60;38.80
21171;DHT22;10743;52.160;20.910;2024-03-02T06:00:43;22.60;39.50
21171;DHT22;10743;52.160;20.910;2024-03-02T06:03:10;22.60;38.90
21171;DHT22;10743;52.160;20.910;2024-03-02T06:05:37;22.50;38.90
21171;DHT22;10743;52.160;20.910;2024-03-02T06:08:04;22.60;39.00
21171;DHT22;10743;52.160;20.910;2024-03-02T06:10:32;22.50;39.00
21171;DHT22;10743;52.160;20.910;2024-03-02T06:12:59;22.50;39.10
21171;DHT22;10743;52.160;20.910;2024-03-02T06:15:26;22.60;39.10
21171;DHT22;10743;52.160;20.910;2024-03-02T06:17:53;22.60;39.00
21171;DHT22;10743;52.160;20.910;2024-03-02T06:20:20;22.60;39.10
21171;DHT22;10743;52.160;20.910;2024-03-02T06:22:48;22.60;39.00
21171;DHT22;10743;52.160;20.910;2024-03-02T06:25:15;22.60;39.10
21171;DHT22;10743;52.160;20.910;2024-03-02T06:27:42;22.60;39.70
21171;DHT22;10743;52.160;20.910;2024-03-02T06:30:09;22.60;38.90
21171;DHT22;10743;52.160;20.910;2024-03-02T06:32:37;22.60;39.10
21171;DHT22;10743;52.160;20.910;2024-03-02T06:35:04;22.70;39.00
21171;DHT22;10743;52.160;20.910;2024-03-02T06:37:34;22.70;39.00
21171;DHT22;10743;52.160;20.910;2024-03-02T06:40:01;22.70;39.10
21171;DHT22;10743;52.160;20.910;2024-03-02T06:42:28;22.70;39.20
21171;DHT22;10743;52.160;20.910;2024-03-02T06:45:01;22.70;39.20
21171;DHT22;10743;52.160;20.910;2024-03-02T06:47:29;22.80;39.10
21171;DHT22;10743;52.160;20.910;2024-03-02T06:49:56;22.80;39.20
21171;DHT22;10743;52.160;20.910;2024-03-02T06:52:25;22.80;39.20
21171;DHT22;10743;52.160;20.910;2024-03-02T06:54:52;22.80;39.20
21171;DHT22;10743;52.160;20.910;2024-03-02T06:57:19;22.80;39.20
21171;DHT22;10743;52.160;20.910;2024-03-02T06:59:47;22.80;39.20
21171;DHT22;10743;52.160;20.910;2024-03-02T07:02:17;22.80;39.20
21171;DHT22;10743;52.160;20.910;2024-03-02T07:04:44;22.90;39.10
21171;DHT22;10743;52.160;20.910;2024-03-02T07:07:12;22.90;39.00
21171;DHT22;10743;52.160;20.910;2024-03-02T07:09:39;22.90;39.20
21171;DHT22;10743;52.160;20.910;2024-03-02T07:12:06;22.90;39.20
21171;DHT22;10743;52.160;20.910;2024-03-02T07:14:34;22.80;39.20
21171;DHT22;10743;52.160;20.910;2024-03-02T07:17:20;22.90;39.20
21171;DHT22;10743;52.160;20.910;2024-03-02T07:19:47;22.90;39.30
21171;DHT22;10743;52.160;20.910;2024-03-02T07:22:14;23.00;39.20
21171;DHT22;10743;52.160;20.910;2024-03-02T07:24:44;23.00;39.10
21171;DHT22;10743;52.160;20.910;2024-03-02T07:27:13;22.90;39.10
21171;DHT22;10743;52.160;20.910;2024-03-02T07:29:40;23.00;39.20
21171;DHT22;10743;52.160;20.910;2024-03-02T07:32:08;23.00;39.20
21171;DHT22;10743;52.160;20.910;2024-03-02T07:34:36;23.00;39.10
21171;DHT22;10743;52.160;20.910;2024-03-02T07:37:04;23.00;39.20
21171;DHT22;10743;52.160;20.910;2024-03-02T07:39:32;23.00;39.20
21171;DHT22;10743;52.160;20.910;2024-03-02T07:42:00;23.00;39.20
21171;DHT22;10743;52.160;20.910;2024-03-02T07:44:27;23.10;39.00
21171;DHT22;10743;52.160;20.910;2024-03-02T07:46:54;23.10;39.00
21171;DHT22;10743;52.160;20.910;2024-03-02T07:49:21;23.10;38.90
21171;DHT22;10743;52.160;20.910;2024-03-02T07:51:48;23.10;38.90
21171;DHT22;10743;52.160;20.910;2024-03-02T07:54:15;23.20;39.00
21171;DHT22;10743;52.160;20.910;2024-03-02T07:56:42;23.20;38.80
21171;DHT22;10743;52.160;20.910;2024-03-02T07:59:09;23.20;38.80
21171;DHT22;10743;52.160;20.910;2024-03-02T08:01:36;23.20;38.90
21171;DHT22;10743;52.160;20.910;2024-03-02T08:04:03;23.20;38.90
21171;DHT22;10743;52.160;20.910;2024-03-02T08:06:31;23.20;38.90
21171;DHT22;10743;52.160;20.910;2024-03-02T08:08:59;23.20;38.90
21171;DHT22;10743;52.160;20.910;2024-03-02T08:11:27;23.20;38.90
21171;DHT22;10743;52.160;20.910;2024-03-02T08:13:54;23.30;38.80
21171;DHT22;10743;52.160;20.910;2024-03-02T08:16:22;23.30;38.80
21171;DHT22;10743;52.160;20.910;2024-03-02T08:18:50;23.30;38.80
21171;DHT22;10743;52.160;20.910;2024-03-02T08:21:17;23.30;38.80
21171;DHT22;10743;52.160;20.910;2024-03-02T08:23:45;23.40;38.80
21171;DHT22;10743;52.160;20.910;2024-03-02T08:26:12;23.40;38.90
21171;DHT22;10743;52.160;20.910;2024-03-02T08:28:39;23.40;38.90
21171;DHT22;10743;52.160;20.910;2024-03-02T08:31:09;23.40;38.90
21171;DHT22;10743;52.160;20.910;2024-03-02T08:33:36;23.50;38.80
21171;DHT22;10743;52.160;20.910;2024-03-02T08:36:05;23.50;38.80
21171;DHT22;10743;52.160;20.910;2024-03-02T08:38:32;23.50;38.70
21171;DHT22;10743;52.160;20.910;2024-03-02T08:40:59;23.50;38.70
21171;DHT22;10743;52.160;20.910;2024-03-02T08:43:26;23.60;38.60
21171;DHT22;10743;52.160;20.910;2024-03-02T08:45:53;23.60;38.70
21171;DHT22;10743;52.160;20.910;2024-03-02T08:48:21;23.60;38.70
21171;DHT22;10743;52.160;20.910;2024-03-02T08:50:48;23.70;38.60
21171;DHT22;10743;52.160;20.910;2024-03-02T08:53:15;23.70;38.60
21171;DHT22;10743;52.160;20.910;2024-03-02T08:55:48;23.70;38.40
21171;DHT22;10743;52.160;20.910;2024-03-02T08:58:15;23.80;38.30
21171;DHT22;10743;52.160;20.910;2024-03-02T09:00:42;23.90;38.10
21171;DHT22;10743;52.160;20.910;2024-03-02T09:03:10;23.90;38.10
21171;DHT22;10743;52.160;20.910;2024-03-02T09:05:37;23.90;38.10
21171;DHT22;10743;52.160;20.910;2024-03-02T09:08:04;24.00;38.00
21171;DHT22;10743;52.160;20.910;2024-03-02T09:10:31;23.90;38.10
21171;DHT22;10743;52.160;20.910;2024-03-02T09:12:58;23.90;38.10
21171;DHT22;10743;52.160;20.910;2024-03-02T09:15:26;24.00;38.10
21171;DHT22;10743;52.160;20.910;2024-03-02T09:17:53;24.10;38.20
21171;DHT22;10743;52.160;20.910;2024-03-02T09:20:20;24.10;37.90
21171;DHT22;10743;52.160;20.910;2024-03-02T09:22:47;24.00;38.00
21171;DHT22;10743;52.160;20.910;2024-03-02T09:25:15;24.00;37.90
21171;DHT22;10743;52.160;20.910;2024-03-02T09:27:43;24.10;37.80
21171;DHT22;10743;52.160;20.910;2024-03-02T09:30:10;24.20;37.50
21171;DHT22;10743;52.160;20.910;2024-03-02T09:32:37;24.20;37.60
21171;DHT22;10743;52.160;20.910;2024-03-02T09:35:05;24.10;37.70
21171;DHT22;10743;52.160;20.910;2024-03-02T09:37:32;24.10;37.80
21171;DHT22;10743;52.160;20.910;2024-03-02T09:39:59;24.50;37.80
21171;DHT22;10743;52.160;20.910;2024-03-02T09:42:26;24.20;37.60
21171;DHT22;10743;52.160;20.910;2024-03-02T09:44:53;24.20;37.70
21171;DHT22;10743;52.160;20.910;2024-03-02T09:47:20;24.20;37.80
21171;DHT22;10743;52.160;20.910;2024-03-02T09:49:47;24.30;37.60
21171;DHT22;10743;52.160;20.910;2024-03-02T09:52:16;24.20;37.70
21171;DHT22;10743;52.160;20.910;2024-03-02T09:54:43;24.20;37.90
21171;DHT22;10743;52.160;20.910;2024-03-02T09:57:10;24.30;37.60
21171;DHT22;10743;52.160;20.910;2024-03-02T09:59:37;24.20;37.50
21171;DHT22;10743;52.160;20.910;2024-03-02T10:02:04;24.30;37.60
21171;DHT22;10743;52.160;20.910;2024-03-02T10:04:33;24.40;37.60
21171;DHT22;10743;52.160;20.910;2024-03-02T10:07:15;24.30;37.60
21171;DHT22;10743;52.160;20.910;2024-03-02T10:09:45;24.40;37.60
21171;DHT22;10743;52.160;20.910;2024-03-02T10:12:14;24.40;37.60
21171;DHT22;10743;52.160;20.910;2024-03-02T10:14:43;24.30;37.80
21171;DHT22;10743;52.160;20.910;2024-03-02T10:17:14;24.30;38.00
21171;DHT22;10743;52.160;20.910;2024-03-02T10:19:42;24.30;38.10
21171;DHT22;10743;52.160;20.910;2024-03-02T10:22:10;24.30;38.00
21171;DHT22;10743;52.160;20.910;2024-03-02T10:24:39;24.40;37.80
21171;DHT22;10743;52.160;20.910;2024-03-02T10:29:40;24.50;37.50
21171;DHT22;10743;52.160;20.910;2024-03-02T10:32:09;24.60;37.70
21171;DHT22;10743;52.160;20.910;2024-03-02T10:34:42;24.60;37.50
21171;DHT22;10743;52.160;20.910;2024-03-02T10:37:11;24.50;37.70
21171;DHT22;10743;52.160;20.910;2024-03-02T10:39:39;24.70;37.40
21171;DHT22;10743;52.160;20.910;2024-03-02T10:42:08;24.80;37.20
21171;DHT22;10743;52.160;20.910;2024-03-02T10:44:35;24.70;37.40
21171;DHT22;10743;52.160;20.910;2024-03-02T10:47:04;24.70;37.60
21171;DHT22;10743;52.160;20.910;2024-03-02T10:49:32;24.70;37.80
21171;DHT22;10743;52.160;20.910;2024-03-02T10:51:59;24.80;37.80
21171;DHT22;10743;52.160;20.910;2024-03-02T10:54:27;24.80;38.40
21171;DHT22;10743;52.160;20.910;2024-03-02T10:57:03;24.80;37.50
21171;DHT22;10743;52.160;20.910;2024-03-02T10:59:36;24.80;37.60
21171;DHT22;10743;52.160;20.910;2024-03-02T11:02:06;24.80;37.60
21171;DHT22;10743;52.160;20.910;2024-03-02T11:04:35;24.90;37.50
21171;DHT22;10743;52.160;20.910;2024-03-02T11:09:41;25.10;36.80
21171;DHT22;10743;52.160;20.910;2024-03-02T11:12:47;25.20;36.90
21171;DHT22;10743;52.160;20.910;2024-03-02T11:15:18;25.10;36.90
21171;DHT22;10743;52.160;20.910;2024-03-02T11:17:49;25.20;36.70
21171;DHT22;10743;52.160;20.910;2024-03-02T11:20:16;25.20;36.90
21171;DHT22;10743;52.160;20.910;2024-03-02T11:22:44;25.20;36.60
21171;DHT22;10743;52.160;20.910;2024-03-02T11:25:31;25.30;36.70
21171;DHT22;10743;52.160;20.910;2024-03-02T11:28:02;25.20;36.90
21171;DHT22;10743;52.160;20.910;2024-03-02T11:33:03;25.20;37.10
21171;DHT22;10743;52.160;20.910;2024-03-02T11:35:44;25.20;36.90
21171;DHT22;10743;52.160;20.910;2024-03-02T11:38:15;25.20;36.90
21171;DHT22;10743;52.160;20.910;2024-03-02T11:40:42;25.20;36.90
21171;DHT22;10743;52.160;20.910;2024-03-02T11:43:10;25.20;36.80
21171;DHT22;10743;52.160;20.910;2024-03-02T11:45:38;25.30;37.00
21171;DHT22;10743;52.160;20.910;2024-03-02T11:48:08;25.20;37.50
21171;DHT22;10743;52.160;20.910;2024-03-02T11:50:42;25.40;36.90
21171;DHT22;10743;52.160;20.910;2024-03-02T11:53:20;25.50;36.80
21171;DHT22;10743;52.160;20.910;2024-03-02T11:56:09;25.60;36.60
21171;DHT22;10743;52.160;20.910;2024-03-02T11:58:39;25.60;36.40
21171;DHT22;10743;52.160;20.910;2024-03-02T12:01:08;25.60;36.40
21171;DHT22;10743;52.160;20.910;2024-03-02T12:03:35;25.60;36.70
21171;DHT22;10743;52.160;20.910;2024-03-02T12:06:02;25.60;36.60
21171;DHT22;10743;52.160;20.910;2024-03-02T12:08:30;25.50;36.70
21171;DHT22;10743;52.160;20.910;2024-03-02T12:11:01;25.60;36.80
21171;DHT22;10743;52.160;20.910;2024-03-02T12:13:30;25.60;36.90
21171;DHT22;10743;52.160;20.910;2024-03-02T12:15:58;25.70;36.80
21171;DHT22;10743;52.160;20.910;2024-03-02T12:18:25;25.80;36.90
21171;DHT22;10743;52.160;20.910;2024-03-02T12:20:53;25.80;36.70
21171;DHT22;10743;52.160;20.910;2024-03-02T12:23:25;25.90;36.80
21171;DHT22;10743;52.160;20.910;2024-03-02T12:25:52;25.80;36.70
21171;DHT22;10743;52.160;20.910;2024-03-02T12:28:20;25.80;36.60
21171;DHT22;10743;52.160;20.910;2024-03-02T12:30:47;26.00;36.30
21171;DHT22;10743;52.160;20.910;2024-03-02T12:33:15;26.10;36.40
21171;DHT22;10743;52.160;20.910;2024-03-02T12:35:43;26.00;36.20
21171;DHT22;10743;52.160;20.910;2024-03-02T12:38:10;26.00;36.20
21171;DHT22;10743;52.160;20.910;2024-03-02T12:40:38;25.90;36.20
21171;DHT22;10743;52.160;20.910;2024-03-02T12:43:05;26.10;36.30
21171;DHT22;10743;52.160;20.910;2024-03-02T12:45:34;26.20;35.90
21171;DHT22;10743;52.160;20.910;2024-03-02T12:48:02;26.30;35.80
21171;DHT22;10743;52.160;20.910;2024-03-02T12:50:31;26.20;35.80
21171;DHT22;10743;52.160;20.910;2024-03-02T12:52:58;26.20;36.00
21171;DHT22;10743;52.160;20.910;2024-03-02T12:55:26;26.20;36.10
21171;DHT22;10743;52.160;20.910;2024-03-02T12:57:53;26.20;36.20
21171;DHT22;10743;52.160;20.910;2024-03-02T13:00:21;26.30;36.10
21171;DHT22;10743;52.160;20.910;2024-03-02T13:02:50;26.40;35.90
21171;DHT22;10743;52.160;20.910;2024-03-02T13:05:19;26.40;35.80
21171;DHT22;10743;52.160;20.910;2024-03-02T13:07:47;26.50;35.80
21171;DHT22;10743;52.160;20.910;2024-03-02T13:10:15;26.60;35.80
21171;DHT22;10743;52.160;20.910;2024-03-02T13:12:43;26.40;35.60
21171;DHT22;10743;52.160;20.910;2024-03-02T13:15:10;26.60;35.70
21171;DHT22;10743;52.160;20.910;2024-03-02T13:17:44;26.60;35.70
21171;DHT22;10743;52.160;20.910;2024-03-02T13:20:15;26.60;35.70
21171;DHT22;10743;52.160;20.910;2024-03-02T13:22:43;26.60;35.70
21171;DHT22;10743;52.160;20.910;2024-03-02T13:25:10;26.60;35.70
21171;DHT22;10743;52.160;20.910;2024-03-02T13:27:38;26.60;35.70
21171;DHT22;10743;52.160;20.910;2024-03-02T13:30:06;26.60;35.70
21171;DHT22;10743;52.160;20.910;2024-03-02T13:32:35;26.50;35.60
21171;DHT22;10743;52.160;20.910;2024-03-02T13:35:03;26.50;35.60
21171;DHT22;10743;52.160;20.910;2024-03-02T13:37:30;26.50;35.50
21171;DHT22;10743;52.160;20.910;2024-03-02T13:39:57;26.60;35.60
21171;DHT22;10743;52.160;20.910;2024-03-02T13:42:24;26.60;35.60
21171;DHT22;10743;52.160;20.910;2024-03-02T13:44:51;26.60;35.60
21171;DHT22;10743;52.160;20.910;2024-03-02T13:47:19;26.60;35.60
21171;DHT22;10743;52.160;20.910;2024-03-02T13:49:47;26.60;35.60
21171;DHT22;10743;52.160;20.910;2024-03-02T13:52:15;26.50;35.50
21171;DHT22;10743;52.160;20.910;2024-03-02T13:54:46;26.60;35.50
21171;DHT22;10743;52.160;20.910;2024-03-02T13:57:14;26.60;35.40
21171;DHT22;10743;52.160;20.910;2024-03-02T13:59:42;26.60;35.50
21171;DHT22;10743;52.160;20.910;2024-03-02T14:02:11;26.50;35.30
21171;DHT22;10743;52.160;20.910;2024-03-02T14:04:38;26.60;35.40
21171;DHT22;10743;52.160;20.910;2024-03-02T14:07:06;26.60;35.20
21171;DHT22;10743;52.160;20.910;2024-03-02T14:09:38;26.50;35.20
21171;DHT22;10743;52.160;20.910;2024-03-02T14:12:05;26.60;35.20
21171;DHT22;10743;52.160;20.910;2024-03-02T14:14:33;26.50;35.30
21171;DHT22;10743;52.160;20.910;2024-03-02T14:17:00;26.60;35.00
21171;DHT22;10743;52.160;20.910;2024-03-02T14:19:30;26.60;35.10
21171;DHT22;10743;52.160;20.910;2024-03-02T14:21:58;26.60;35.00
21171;DHT22;10743;52.160;20.910;2024-03-02T14:24:26;26.50;35.00
21171;DHT22;10743;52.160;20.910;2024-03-02T14:26:54;26.50;35.10
21171;DHT22;10743;52.160;20.910;2024-03-02T14:29:36;26.50;35.20
21171;DHT22;10743;52.160;20.910;2024-03-02T14:32:05;26.40;35.10
21171;DHT22;10743;52.160;20.910;2024-03-02T14:34:32;26.40;35.10
21171;DHT22;10743;52.160;20.910;2024-03-02T14:37:01;26.40;35.20
21171;DHT22;10743;52.160;20.910;2024-03-02T14:39:29;26.30;35.20
21171;DHT22;10743;52.160;20.910;2024-03-02T14:42:01;26.30;35.10
21171;DHT22;10743;52.160;20.910;2024-03-02T14:44:28;26.30;35.20
21171;DHT22;10743;52.160;20.910;2024-03-02T14:46:55;26.30;35.30
21171;DHT22;10743;52.160;20.910;2024-03-02T14:49:25;26.30;35.50
21171;DHT22;10743;52.160;20.910;2024-03-02T14:51:52;26.20;35.40
21171;DHT22;10743;52.160;20.910;2024-03-02T14:54:19;26.20;35.50
21171;DHT22;10743;52.160;20.910;2024-03-02T14:56:46;26.10;35.70
21171;DHT22;10743;52.160;20.910;2024-03-02T14:59:13;26.00;35.60
21171;DHT22;10743;52.160;20.910;2024-03-02T15:01:40;26.00;35.60
21171;DHT22;10743;52.160;20.910;2024-03-02T15:04:07;26.10;35.60
21171;DHT22;10743;52.160;20.910;2024-03-02T15:06:34;26.00;35.40
21171;DHT22;10743;52.160;20.910;2024-03-02T15:09:01;26.00;35.40
21171;DHT22;10743;52.160;20.910;2024-03-02T15:11:28;26.00;35.50
21171;DHT22;10743;52.160;20.910;2024-03-02T15:13:56;26.00;35.60
21171;DHT22;10743;52.160;20.910;2024-03-02T15:16:23;25.90;35.60
21171;DHT22;10743;52.160;20.910;2024-03-02T15:18:51;25.90;35.70
21171;DHT22;10743;52.160;20.910;2024-03-02T15:21:18;25.80;35.70
21171;DHT22;10743;52.160;20.910;2024-03-02T15:23:47;25.90;35.80
21171;DHT22;10743;52.160;20.910;2024-03-02T15:26:14;25.80;35.80
21171;DHT22;10743;52.160;20.910;2024-03-02T15:28:42;25.80;35.80
21171;DHT22;10743;52.160;20.910;2024-03-02T15:31:09;25.80;35.70
21171;DHT22;10743;52.160;20.910;2024-03-02T15:33:36;25.70;35.70